Time;durP1;ratioP1;P1;durP2;ratioP2;P2;SDS_P1;SDS_P2;PMS_P1;PMS_P2;Temp;Humidity;BMP_temperature;BMP_pressure;BME280_temperature;BME280_humidity;BME280_pressure;Samples;Min_cycle;Max_cycle;Signal;HPM_P1;HPM_P2
2023/10/24 00:00:31;;;;;;;5.38;4.47;;;;;;;;;;4978917;28;20038;-69
2023/10/24 00:02:56;;;;;;;8.93;5.07;;;;;;;;;;4980144;28;20058;-68
2023/10/24 00:05:21;;;;;;;5.65;4.95;;;;;;;;;;4979889;28;20061;-69
2023/10/24 00:07:47;;;;;;;7.25;5.25;;;;;;;;;;4980826;28;20089;-68
2023/10/24 00:10:13;;;;;;;7.25;5.53;;;;;;;;;;4980501;28;20064;-69
2023/10/24 00:12:38;;;;;;;7.13;4.95;;;;;;;;;;4980172;28;20799;-69
2023/10/24 00:15:04;;;;;;;6.50;5.40;;;;;;;;;;4978802;28;20057;-69
2023/10/24 00:17:30;;;;;;;6.68;5.47;;;;;;;;;;4979534;28;20057;-69
2023/10/24 00:19:55;;;;;;;6.60;4.80;;;;;;;;;;4980627;28;20069;-69
2023/10/24 00:22:20;;;;;;;5.45;4.85;;;;;;;;;;4980382;28;20212;-68
2023/10/24 00:24:46;;;;;;;7.03;4.80;;;;;;;;;;4979818;28;20046;-68
2023/10/24 00:27:12;;;;;;;11.85;5.07;;;;;;;;;;4980326;28;20049;-67
2023/10/24 00:29:37;;;;;;;5.82;4.35;;;;;;;;;;4994736;28;20085;-68
2023/10/24 00:32:03;;;;;;;5.03;4.53;;;;;;;;;;4981103;28;20034;-69
2023/10/24 00:34:29;;;;;;;6.15;4.32;;;;;;;;;;4979079;28;20049;-69
2023/10/24 00:36:56;;;;;;;8.90;4.25;;;;;;;;;;4979380;28;20058;-69
2023/10/24 00:39:22;;;;;;;8.18;4.90;;;;;;;;;;4978698;28;20112;-68
2023/10/24 00:41:47;;;;;;;6.93;4.53;;;;;;;;;;4978510;28;20530;-69
2023/10/24 00:44:13;;;;;;;6.40;4.25;;;;;;;;;;4994704;28;20057;-69
2023/10/24 00:46:39;;;;;;;9.15;4.53;;;;;;;;;;4979463;28;20056;-69
2023/10/24 00:49:06;;;;;;;5.45;4.43;;;;;;;;;;4979625;28;20095;-69
2023/10/24 00:51:31;;;;;;;7.47;4.63;;;;;;;;;;4977767;28;20043;-69
2023/10/24 00:53:59;;;;;;;4.68;3.67;;;;;;;;;;4962117;28;20042;-69
2023/10/24 00:56:25;;;;;;;5.32;4.18;;;;;;;;;;4979409;28;20054;-69
2023/10/24 00:58:51;;;;;;;5.35;3.72;;;;;;;;;;4977580;28;20658;-70
2023/10/24 01:01:18;;;;;;;6.90;4.10;;;;;;;;;;4978309;28;20035;-70
2023/10/24 01:03:46;;;;;;;7.60;4.43;;;;;;;;;;4979388;28;20048;-69
2023/10/24 01:06:12;;;;;;;7.72;4.78;;;;;;;;;;4978000;28;20410;-69
2023/10/24 01:08:37;;;;;;;7.95;4.78;;;;;;;;;;4977077;28;20087;-69
2023/10/24 01:11:04;;;;;;;5.70;4.55;;;;;;;;;;4978357;28;20050;-69
2023/10/24 01:13:30;;;;;;;5.22;3.90;;;;;;;;;;4976113;28;20082;-69
2023/10/24 01:15:55;;;;;;;6.43;4.30;;;;;;;;;;4977666;28;20146;-69
2023/10/24 01:18:21;;;;;;;6.75;4.07;;;;;;;;;;4991701;28;20065;-68
2023/10/24 01:20:46;;;;;;;7.22;4.30;;;;;;;;;;4977925;28;20492;-69
2023/10/24 01:23:12;;;;;;;10.65;4.80;;;;;;;;;;4993212;28;20085;-69
2023/10/24 01:25:40;;;;;;;10.70;3.78;;;;;;;;;;4977041;28;20058;-69
2023/10/24 01:28:05;;;;;;;5.95;2.95;;;;;;;;;;4979190;28;20117;-69
2023/10/24 01:30:32;;;;;;;9.38;2.70;;;;;;;;;;4976803;28;20431;-69
2023/10/24 01:32:57;;;;;;;5.97;2.35;;;;;;;;;;4977246;28;20064;-68
2023/10/24 01:35:23;;;;;;;6.45;2.35;;;;;;;;;;4994087;28;20266;-69
2023/10/24 01:37:48;;;;;;;5.45;2.80;;;;;;;;;;4979935;28;20649;-68
2023/10/24 01:40:14;;;;;;;3.08;2.17;;;;;;;;;;4978203;28;20566;-69
2023/10/24 01:42:39;;;;;;;8.65;2.55;;;;;;;;;;4994372;28;21182;-69
2023/10/24 01:45:05;;;;;;;7.45;2.47;;;;;;;;;;4977986;28;20038;-70
2023/10/24 01:47:31;;;;;;;6.13;2.78;;;;;;;;;;4977266;28;20137;-69
2023/10/24 01:49:56;;;;;;;6.05;2.92;;;;;;;;;;4980377;28;20705;-70
2023/10/24 01:52:22;;;;;;;5.47;3.40;;;;;;;;;;4978388;28;20046;-69
2023/10/24 01:54:47;;;;;;;7.90;3.60;;;;;;;;;;4994152;28;20167;-69
2023/10/24 01:57:14;;;;;;;4.32;3.45;;;;;;;;;;4978483;28;20050;-70
2023/10/24 01:59:40;;;;;;;4.65;3.50;;;;;;;;;;4994226;28;20057;-69
2023/10/24 02:02:05;;;;;;;4.28;3.63;;;;;;;;;;4978570;28;20072;-69
2023/10/24 02:04:31;;;;;;;4.68;3.30;;;;;;;;;;4979002;28;20076;-69
2023/10/24 02:06:56;;;;;;;5.95;3.13;;;;;;;;;;4987105;28;20046;-69
2023/10/24 02:09:22;;;;;;;5.07;3.45;;;;;;;;;;4976594;28;20057;-70
2023/10/24 02:11:47;;;;;;;5.25;3.45;;;;;;;;;;4977088;28;20136;-68
2023/10/24 02:14:13;;;;;;;5.03;3.42;;;;;;;;;;4978524;28;20049;-68
2023/10/24 02:16:38;;;;;;;6.10;3.58;;;;;;;;;;4992798;28;20047;-68
2023/10/24 02:19:04;;;;;;;6.13;3.08;;;;;;;;;;4977095;28;20133;-67
2023/10/24 02:21:29;;;;;;;9.93;3.72;;;;;;;;;;4992370;28;20064;-69
2023/10/24 02:23:57;;;;;;;5.28;3.70;;;;;;;;;;4977120;28;20524;-68
2023/10/24 02:26:23;;;;;;;6.15;3.40;;;;;;;;;;4978596;28;20161;-69
2023/10/24 02:28:48;;;;;;;6.70;3.65;;;;;;;;;;4976163;28;20054;-68
2023/10/24 02:31:14;;;;;;;5.15;3.15;;;;;;;;;;4978193;28;20184;-68
2023/10/24 02:33:40;;;;;;;5.68;3.88;;;;;;;;;;4977617;28;20463;-68
2023/10/24 02:36:10;;;;;;;4.10;3.70;;;;;;;;;;4978723;28;20046;-69
2023/10/24 02:38:36;;;;;;;7.15;3.90;;;;;;;;;;4975833;28;20105;-68
2023/10/24 02:41:03;;;;;;;4.30;3.28;;;;;;;;;;4977426;28;20077;-69
2023/10/24 02:43:28;;;;;;;8.55;3.30;;;;;;;;;;4976343;28;20050;-69
2023/10/24 02:45:54;;;;;;;5.57;3.08;;;;;;;;;;4978500;28;20101;-68
2023/10/24 02:48:20;;;;;;;10.38;3.70;;;;;;;;;;4976513;28;20046;-68
2023/10/24 02:50:51;;;;;;;6.53;3.50;;;;;;;;;;4976438;28;20053;-68
2023/10/24 02:53:16;;;;;;;6.10;4.03;;;;;;;;;;4976891;28;20051;-69
2023/10/24 02:55:42;;;;;;;4.65;3.83;;;;;;;;;;4977889;28;20312;-68
2023/10/24 02:58:07;;;;;;;7.70;4.03;;;;;;;;;;4978208;28;20132;-68
2023/10/24 03:00:32;;;;;;;4.75;3.65;;;;;;;;;;4980976;28;20046;-69
2023/10/24 03:02:58;;;;;;;4.70;3.67;;;;;;;;;;4982079;28;20046;-69
2023/10/24 03:05:23;;;;;;;5.93;3.78;;;;;;;;;;4981032;28;20050;-70
2023/10/24 03:07:48;;;;;;;7.13;3.90;;;;;;;;;;4980455;28;20054;-68
2023/10/24 03:10:14;;;;;;;11.90;5.18;;;;;;;;;;4995738;28;20392;-69
2023/10/24 03:12:40;;;;;;;4.95;3.78;;;;;;;;;;4981118;28;20058;-69
2023/10/24 03:15:05;;;;;;;8.27;4.47;;;;;;;;;;4992257;28;20099;-70
2023/10/24 03:17:31;;;;;;;5.60;4.60;;;;;;;;;;4978750;28;20046;-68
2023/10/24 03:19:56;;;;;;;7.40;4.70;;;;;;;;;;4979989;28;20054;-69
2023/10/24 03:22:22;;;;;;;6.07;4.07;;;;;;;;;;4995285;28;20062;-68
2023/10/24 03:24:49;;;;;;;4.75;4.18;;;;;;;;;;4981593;28;20050;-69
2023/10/24 03:27:17;;;;;;;8.27;4.97;;;;;;;;;;4980009;28;20454;-68
2023/10/24 03:29:43;;;;;;;11.15;5.53;;;;;;;;;;4962188;28;20161;-69
2023/10/24 03:32:10;;;;;;;6.15;4.93;;;;;;;;;;4979305;28;20050;-69
2023/10/24 03:34:38;;;;;;;6.00;5.22;;;;;;;;;;4980013;28;20437;-69
2023/10/24 03:37:03;;;;;;;9.88;5.63;;;;;;;;;;4979663;28;20515;-69
2023/10/24 03:39:29;;;;;;;12.90;5.00;;;;;;;;;;4980250;28;20057;-70
2023/10/24 03:41:55;;;;;;;10.57;4.85;;;;;;;;;;4979698;28;20050;-69
2023/10/24 03:44:23;;;;;;;5.43;4.70;;;;;;;;;;4979006;28;20058;-69
2023/10/24 03:46:49;;;;;;;4.93;4.43;;;;;;;;;;4979596;28;20085;-69
2023/10/24 03:49:14;;;;;;;7.25;4.65;;;;;;;;;;4980814;28;20070;-70
2023/10/24 03:51:40;;;;;;;4.57;4.03;;;;;;;;;;4978988;28;20054;-69
2023/10/24 03:54:05;;;;;;;9.70;3.85;;;;;;;;;;4980759;28;20399;-69
2023/10/24 03:56:32;;;;;;;5.53;4.03;;;;;;;;;;4979721;28;20264;-69
2023/10/24 03:58:57;;;;;;;6.60;5.10;;;;;;;;;;4980279;28;20419;-68
2023/10/24 04:01:23;;;;;;;6.28;4.78;;;;;;;;;;4979640;28;20121;-68
2023/10/24 04:03:48;;;;;;;5.47;4.45;;;;;;;;;;4980885;28;20053;-69
2023/10/24 04:06:14;;;;;;;5.68;4.45;;;;;;;;;;4980291;28;20042;-69
2023/10/24 04:08:39;;;;;;;8.10;4.40;;;;;;;;;;4979604;28;20093;-68
2023/10/24 04:11:12;;;;;;;5.97;4.53;;;;;;;;;;4978164;28;20559;-70
2023/10/24 04:13:38;;;;;;;7.00;4.60;;;;;;;;;;4976982;28;21465;-69
2023/10/24 04:16:03;;;;;;;6.72;4.53;;;;;;;;;;4979775;28;20500;-71
2023/10/24 04:18:29;;;;;;;6.15;4.00;;;;;;;;;;4974602;28;20046;-70
2023/10/24 04:20:54;;;;;;;5.97;4.53;;;;;;;;;;4978750;28;20096;-70
2023/10/24 04:23:22;;;;;;;4.18;3.53;;;;;;;;;;4994065;28;20372;-70
2023/10/24 04:25:49;;;;;;;5.35;4.38;;;;;;;;;;4979919;28;20491;-71
2023/10/24 04:28:15;;;;;;;5.47;4.05;;;;;;;;;;4979166;28;20045;-70
2023/10/24 04:30:41;;;;;;;6.10;4.68;;;;;;;;;;4977119;28;20050;-71
2023/10/24 04:33:09;;;;;;;6.35;4.57;;;;;;;;;;4977876;28;20080;-68
2023/10/24 04:35:43;;;;;;;8.38;4.72;;;;;;;;;;4977044;28;20496;-69
2023/10/24 04:38:10;;;;;;;7.57;5.53;;;;;;;;;;4980313;28;20518;-70
2023/10/24 04:40:39;;;;;;;7.63;5.30;;;;;;;;;;4976763;28;20042;-71
2023/10/24 04:43:09;;;;;;;6.80;4.50;;;;;;;;;;4989942;28;20122;-70
2023/10/24 04:45:37;;;;;;;15.38;5.03;;;;;;;;;;4977912;28;20078;-70
2023/10/24 04:48:03;;;;;;;7.63;4.88;;;;;;;;;;4978583;28;20124;-68
2023/10/24 04:50:29;;;;;;;6.55;4.55;;;;;;;;;;4978622;28;20597;-71
2023/10/24 04:52:55;;;;;;;6.88;4.45;;;;;;;;;;4979562;28;20104;-71
2023/10/24 04:55:22;;;;;;;7.55;4.82;;;;;;;;;;4979306;28;20066;-70
2023/10/24 04:57:47;;;;;;;6.53;4.68;;;;;;;;;;4979362;28;20957;-70
2023/10/24 05:00:13;;;;;;;5.07;4.57;;;;;;;;;;4979252;28;20049;-69
2023/10/24 05:02:39;;;;;;;8.70;4.72;;;;;;;;;;4978884;28;20056;-71
2023/10/24 05:05:06;;;;;;;7.25;5.03;;;;;;;;;;4980232;28;20104;-69
2023/10/24 05:07:31;;;;;;;7.43;4.97;;;;;;;;;;4976552;28;20042;-70
2023/10/24 05:09:57;;;;;;;9.13;4.85;;;;;;;;;;4979280;28;20052;-71
2023/10/24 05:12:22;;;;;;;7.55;4.68;;;;;;;;;;4976819;28;20053;-69
2023/10/24 05:14:48;;;;;;;6.70;4.43;;;;;;;;;;4975907;28;20042;-71
2023/10/24 05:17:14;;;;;;;7.18;4.22;;;;;;;;;;4977518;28;20058;-70
2023/10/24 05:19:43;;;;;;;8.43;4.30;;;;;;;;;;4976216;28;20058;-70
2023/10/24 05:22:10;;;;;;;6.72;4.40;;;;;;;;;;4978717;28;20080;-70
2023/10/24 05:24:37;;;;;;;6.45;4.82;;;;;;;;;;4977893;28;20042;-70
2023/10/24 05:27:03;;;;;;;6.88;4.90;;;;;;;;;;4978936;28;20133;-70
2023/10/24 05:29:31;;;;;;;6.75;4.32;;;;;;;;;;4978206;28;20691;-69
2023/10/24 05:31:57;;;;;;;9.77;4.70;;;;;;;;;;4978492;28;20042;-70
2023/10/24 05:34:22;;;;;;;8.98;5.80;;;;;;;;;;4977700;28;20558;-70
2023/10/24 05:36:49;;;;;;;10.25;5.68;;;;;;;;;;4979162;28;20539;-71
2023/10/24 05:39:15;;;;;;;10.85;5.40;;;;;;;;;;4979465;28;20375;-71
2023/10/24 05:41:41;;;;;;;8.70;5.93;;;;;;;;;;4978635;28;20054;-71
2023/10/24 05:44:06;;;;;;;7.05;5.60;;;;;;;;;;4977731;28;20049;-70
2023/10/24 05:46:31;;;;;;;7.18;4.82;;;;;;;;;;4978418;28;20066;-69
2023/10/24 05:48:57;;;;;;;7.55;4.90;;;;;;;;;;4977499;28;20058;-70
2023/10/24 05:51:27;;;;;;;9.88;5.20;;;;;;;;;;4978667;28;20544;-71
2023/10/24 05:53:53;;;;;;;9.55;4.82;;;;;;;;;;4979774;28;20132;-70
2023/10/24 05:56:19;;;;;;;7.75;5.25;;;;;;;;;;4978624;28;20137;-70
2023/10/24 05:58:45;;;;;;;12.40;4.68;;;;;;;;;;4977140;28;20058;-70
2023/10/24 06:01:11;;;;;;;5.30;4.47;;;;;;;;;;4977398;28;20255;-69
2023/10/24 06:03:36;;;;;;;7.05;5.15;;;;;;;;;;4978082;28;20126;-70
2023/10/24 06:06:02;;;;;;;8.35;5.22;;;;;;;;;;4979196;28;20109;-70
2023/10/24 06:08:27;;;;;;;7.18;5.22;;;;;;;;;;4977194;28;20134;-68
2023/10/24 06:11:03;;;;;;;8.35;5.47;;;;;;;;;;4977762;28;20042;-69
2023/10/24 06:13:29;;;;;;;6.13;4.78;;;;;;;;;;4977982;28;20042;-68
2023/10/24 06:15:55;;;;;;;6.88;5.63;;;;;;;;;;4977890;28;20097;-68
2023/10/24 06:18:20;;;;;;;9.77;5.10;;;;;;;;;;4977208;28;20082;-69
2023/10/24 06:20:47;;;;;;;9.98;6.20;;;;;;;;;;4979024;28;20046;-69
2023/10/24 06:23:13;;;;;;;12.00;6.22;;;;;;;;;;4979041;28;20053;-69
2023/10/24 06:25:42;;;;;;;9.40;5.25;;;;;;;;;;4978638;28;20050;-69
2023/10/24 06:28:08;;;;;;;9.15;5.05;;;;;;;;;;4979300;28;20725;-69
2023/10/24 06:30:34;;;;;;;9.55;4.70;;;;;;;;;;4977700;28;20953;-69
2023/10/24 06:33:00;;;;;;;6.13;4.70;;;;;;;;;;4980402;28;20038;-68
2023/10/24 06:35:26;;;;;;;9.20;4.85;;;;;;;;;;4982784;28;20073;-69
2023/10/24 06:37:51;;;;;;;8.38;4.90;;;;;;;;;;4981159;28;20050;-69
2023/10/24 06:40:17;;;;;;;5.90;4.55;;;;;;;;;;4982530;28;20042;-71
2023/10/24 06:42:44;;;;;;;8.25;4.80;;;;;;;;;;4981870;28;20488;-68
2023/10/24 06:45:11;;;;;;;6.75;4.57;;;;;;;;;;4982238;28;20042;-68
2023/10/24 06:47:36;;;;;;;5.60;4.28;;;;;;;;;;4981697;28;20062;-69
2023/10/24 06:50:02;;;;;;;8.68;5.18;;;;;;;;;;4982032;28;20472;-69
2023/10/24 06:52:28;;;;;;;7.05;5.30;;;;;;;;;;4981291;28;20035;-68
2023/10/24 06:54:53;;;;;;;10.20;4.88;;;;;;;;;;4982343;28;20634;-69
2023/10/24 06:57:19;;;;;;;7.90;4.60;;;;;;;;;;4982475;28;20535;-68
2023/10/24 06:59:45;;;;;;;8.13;5.18;;;;;;;;;;4981005;28;20141;-69
2023/10/24 07:02:10;;;;;;;7.93;4.15;;;;;;;;;;4981683;28;20049;-69
2023/10/24 07:04:35;;;;;;;8.43;4.30;;;;;;;;;;4981969;28;20038;-68
2023/10/24 07:07:01;;;;;;;5.90;4.38;;;;;;;;;;4981078;28;20081;-68
2023/10/24 07:09:26;;;;;;;8.27;4.82;;;;;;;;;;4981177;28;20042;-69
2023/10/24 07:11:52;;;;;;;5.47;4.38;;;;;;;;;;4982020;28;20046;-68
2023/10/24 07:14:17;;;;;;;8.35;5.05;;;;;;;;;;4981566;28;20050;-69
2023/10/24 07:16:43;;;;;;;10.52;5.32;;;;;;;;;;4980711;28;20058;-69
2023/10/24 07:19:09;;;;;;;9.07;4.55;;;;;;;;;;4981746;28;20104;-68
2023/10/24 07:21:35;;;;;;;6.32;4.50;;;;;;;;;;4981052;28;20053;-69
2023/10/24 07:24:00;;;;;;;6.47;4.00;;;;;;;;;;4982327;28;20253;-69
2023/10/24 07:26:25;;;;;;;5.53;4.35;;;;;;;;;;4981743;28;20188;-69
2023/10/24 07:28:51;;;;;;;6.65;4.43;;;;;;;;;;4980530;28;20054;-69
2023/10/24 07:31:16;;;;;;;8.32;4.43;;;;;;;;;;4981734;28;20057;-70
2023/10/24 07:33:42;;;;;;;6.88;4.65;;;;;;;;;;4996064;28;20054;-71
2023/10/24 07:36:08;;;;;;;9.50;4.50;;;;;;;;;;4996113;28;20458;-68
2023/10/24 07:38:34;;;;;;;10.25;4.85;;;;;;;;;;4980080;28;20057;-69
2023/10/24 07:41:00;;;;;;;13.95;5.32;;;;;;;;;;4980232;28;20050;-68
2023/10/24 07:43:26;;;;;;;7.65;5.03;;;;;;;;;;4981275;28;20042;-69
2023/10/24 07:45:55;;;;;;;7.65;4.38;;;;;;;;;;4982321;28;20511;-69
2023/10/24 07:48:21;;;;;;;5.85;4.82;;;;;;;;;;4983511;28;20058;-69
2023/10/24 07:50:54;;;;;;;7.63;5.72;;;;;;;;;;4983146;28;20100;-69
2023/10/24 07:53:23;;;;;;;9.52;5.53;;;;;;;;;;4982273;28;20035;-69
2023/10/24 07:55:50;;;;;;;9.48;5.40;;;;;;;;;;4981915;28;20042;-70
2023/10/24 07:58:16;;;;;;;8.20;4.63;;;;;;;;;;4981202;28;20053;-69
2023/10/24 08:00:45;;;;;;;7.45;5.13;;;;;;;;;;4980383;28;20046;-68
2023/10/24 08:03:12;;;;;;;9.23;4.70;;;;;;;;;;4981223;28;20048;-70
2023/10/24 08:05:38;;;;;;;7.95;4.50;;;;;;;;;;4979968;28;20065;-69
2023/10/24 08:08:04;;;;;;;6.15;4.47;;;;;;;;;;4981734;28;20088;-70
2023/10/24 08:10:31;;;;;;;7.05;4.38;;;;;;;;;;4979132;28;20444;-70
2023/10/24 08:12:57;;;;;;;10.63;4.45;;;;;;;;;;4980108;28;20482;-69
2023/10/24 08:15:23;;;;;;;8.10;4.32;;;;;;;;;;4979978;28;20153;-69
2023/10/24 08:17:48;;;;;;;9.02;4.53;;;;;;;;;;4980389;28;20165;-69
2023/10/24 08:20:14;;;;;;;9.18;4.63;;;;;;;;;;4980155;28;20046;-71
2023/10/24 08:22:39;;;;;;;5.97;4.60;;;;;;;;;;4980489;28;20042;-69
2023/10/24 08:25:05;;;;;;;6.75;4.20;;;;;;;;;;4980993;28;20085;-70
2023/10/24 08:27:30;;;;;;;4.80;4.07;;;;;;;;;;4979749;28;20038;-69
2023/10/24 08:29:56;;;;;;;9.85;4.30;;;;;;;;;;4979745;28;20038;-71
2023/10/24 08:32:22;;;;;;;8.23;4.22;;;;;;;;;;4979832;28;20038;-70
2023/10/24 08:34:47;;;;;;;10.70;4.85;;;;;;;;;;4980312;28;20508;-70
2023/10/24 08:37:12;;;;;;;12.82;4.80;;;;;;;;;;4980285;28;20049;-70
2023/10/24 08:39:38;;;;;;;12.35;4.93;;;;;;;;;;4979053;28;20038;-70
2023/10/24 08:42:04;;;;;;;8.75;4.20;;;;;;;;;;4994985;28;20041;-70
2023/10/24 08:44:30;;;;;;;10.73;4.30;;;;;;;;;;4995534;28;20592;-71
2023/10/24 08:46:56;;;;;;;8.70;4.22;;;;;;;;;;4978299;28;20046;-71
2023/10/24 08:49:23;;;;;;;8.73;4.63;;;;;;;;;;4979390;28;20054;-69
2023/10/24 08:51:48;;;;;;;4.63;3.83;;;;;;;;;;4979362;28;20046;-70
2023/10/24 08:54:14;;;;;;;11.05;4.43;;;;;;;;;;4979608;28;20104;-69
2023/10/24 08:56:41;;;;;;;8.10;4.22;;;;;;;;;;4979238;28;20179;-71
2023/10/24 08:59:09;;;;;;;10.77;5.00;;;;;;;;;;4979366;28;20050;-71
2023/10/24 09:01:36;;;;;;;5.70;4.43;;;;;;;;;;4978658;28;20497;-71
2023/10/24 09:04:03;;;;;;;12.23;4.43;;;;;;;;;;4979539;28;20395;-72
2023/10/24 09:06:31;;;;;;;9.02;5.28;;;;;;;;;;4979890;28;20101;-70
2023/10/24 09:08:57;;;;;;;6.60;4.90;;;;;;;;;;4986576;28;20046;-71
2023/10/24 09:11:22;;;;;;;10.35;5.15;;;;;;;;;;4978489;28;20061;-71
2023/10/24 09:13:48;;;;;;;12.02;4.97;;;;;;;;;;4980001;28;20054;-71
2023/10/24 09:16:15;;;;;;;6.40;4.40;;;;;;;;;;4995595;28;20046;-69
2023/10/24 09:18:40;;;;;;;12.27;4.25;;;;;;;;;;4978516;28;20101;-71
2023/10/24 09:21:08;;;;;;;8.82;4.00;;;;;;;;;;4963169;28;20455;-70
2023/10/24 09:23:35;;;;;;;10.60;3.72;;;;;;;;;;4995232;28;20056;-72
2023/10/24 09:26:05;;;;;;;5.35;3.67;;;;;;;;;;4980474;28;20670;-71
2023/10/24 09:28:33;;;;;;;8.40;3.78;;;;;;;;;;4979256;28;20061;-70
2023/10/24 09:30:59;;;;;;;7.43;3.75;;;;;;;;;;4979014;28;20046;-71
2023/10/24 09:33:28;;;;;;;11.77;3.58;;;;;;;;;;4980643;28;20046;-70
2023/10/24 09:35:54;;;;;;;9.93;4.00;;;;;;;;;;4979816;28;20045;-71
2023/10/24 09:38:22;;;;;;;4.80;3.65;;;;;;;;;;4978893;28;20046;-71
2023/10/24 09:40:48;;;;;;;4.53;3.05;;;;;;;;;;4977661;28;20046;-69
2023/10/24 09:43:21;;;;;;;13.43;3.45;;;;;;;;;;4979302;28;20092;-71
2023/10/24 09:45:49;;;;;;;7.13;3.58;;;;;;;;;;4979411;28;20042;-70
2023/10/24 09:48:16;;;;;;;11.95;4.07;;;;;;;;;;4978816;28;20053;-70
2023/10/24 09:50:42;;;;;;;7.97;3.58;;;;;;;;;;4978602;28;20054;-70
2023/10/24 09:53:09;;;;;;;6.72;3.45;;;;;;;;;;4979937;28;20061;-70
2023/10/24 09:55:35;;;;;;;9.63;3.10;;;;;;;;;;4978857;28;20042;-69
2023/10/24 09:58:04;;;;;;;8.65;2.88;;;;;;;;;;4977371;28;20053;-69
2023/10/24 10:00:31;;;;;;;6.07;3.15;;;;;;;;;;4978473;28;20056;-70
2023/10/24 10:02:58;;;;;;;13.13;3.58;;;;;;;;;;4977889;28;20085;-70
2023/10/24 10:05:26;;;;;;;5.85;3.42;;;;;;;;;;4978275;28;20697;-69
2023/10/24 10:07:53;;;;;;;4.60;3.05;;;;;;;;;;4981771;28;20050;-70
2023/10/24 10:10:19;;;;;;;9.98;3.58;;;;;;;;;;4983422;28;20054;-69
2023/10/24 10:12:46;;;;;;;6.07;3.58;;;;;;;;;;4991122;28;20050;-70
2023/10/24 10:15:40;;;;;;;8.75;4.03;;;;;;;;;;4983643;28;20051;-69
2023/10/24 10:18:53;;;;;;;8.98;4.32;;;;;;;;;;4995718;28;20054;-70
2023/10/24 10:21:38;;;;;;;;;;;;;;;;;;4983130;28;20044;-70
2023/10/24 10:24:34;;;;;;;7.38;4.13;;;;;;;;;;4982138;28;20379;-71
2023/10/24 10:27:27;;;;;;;9.65;4.50;;;;;;;;;;4983909;28;20042;-72
2023/10/24 10:30:02;;;;;;;8.57;4.00;;;;;;;;;;4970312;28;20061;-70
2023/10/24 10:32:41;;;;;;;7.47;4.45;;;;;;;;;;4982494;28;20042;-71
2023/10/24 10:35:07;;;;;;;5.30;3.80;;;;;;;;;;4983807;28;20046;-72
2023/10/24 10:37:34;;;;;;;6.53;3.88;;;;;;;;;;4982612;28;20054;-71
2023/10/24 10:40:27;;;;;;;12.32;4.22;;;;;;;;;;4983046;28;20138;-71
2023/10/24 10:42:53;;;;;;;7.88;3.67;;;;;;;;;;4982824;28;20061;-71
2023/10/24 10:45:28;;;;;;;12.35;3.90;;;;;;;;;;4984030;28;20046;-69
2023/10/24 10:48:06;;;;;;;9.32;4.28;;;;;;;;;;4983529;28;20104;-70
2023/10/24 10:50:33;;;;;;;8.02;4.68;;;;;;;;;;4984137;28;20052;-71
2023/10/24 10:53:40;;;;;;;7.20;3.95;;;;;;;;;;4983309;28;20119;-70
2023/10/24 10:56:25;;;;;;;11.27;4.25;;;;;;;;;;4971997;28;20052;-70
2023/10/24 10:58:56;;;;;;;9.20;4.32;;;;;;;;;;5000466;28;20058;-69
2023/10/24 11:01:47;;;;;;;8.50;4.57;;;;;;;;;;4990525;28;20057;-71
2023/10/24 11:04:14;;;;;;;9.23;4.67;;;;;;;;;;4952115;28;20053;-70
2023/10/24 11:06:56;;;;;;;12.20;4.70;;;;;;;;;;4982916;28;20088;-70
2023/10/24 11:09:42;;;;;;;14.30;4.50;;;;;;;;;;4982356;28;20077;-69
2023/10/24 11:12:28;;;;;;;14.00;4.95;;;;;;;;;;4966223;28;20057;-70
2023/10/24 11:15:13;;;;;;;7.78;6.00;;;;;;;;;;4980322;28;20082;-71
2023/10/24 11:17:40;;;;;;;13.02;6.57;;;;;;;;;;4981419;28;20396;-71
2023/10/24 11:20:08;;;;;;;13.45;6.78;;;;;;;;;;4980476;28;20623;-70
2023/10/24 11:22:34;;;;;;;12.30;7.32;;;;;;;;;;4981694;28;20049;-71
2023/10/24 11:24:59;;;;;;;14.65;8.10;;;;;;;;;;4980151;28;20193;-71
2023/10/24 11:27:25;;;;;;;17.00;7.97;;;;;;;;;;4979822;28;20516;-70
2023/10/24 11:29:50;;;;;;;14.75;8.00;;;;;;;;;;4996580;28;20085;-72
2023/10/24 11:32:19;;;;;;;14.13;9.35;;;;;;;;;;4973330;28;20049;-71
2023/10/24 11:34:46;;;;;;;18.35;10.50;;;;;;;;;;4967150;28;20046;-71
2023/10/24 11:37:11;;;;;;;21.15;10.93;;;;;;;;;;4980123;28;20049;-70
2023/10/24 11:39:41;;;;;;;19.42;11.68;;;;;;;;;;4981735;28;20077;-71
2023/10/24 11:42:06;;;;;;;17.75;12.18;;;;;;;;;;4983951;28;20069;-71
2023/10/24 11:44:32;;;;;;;20.67;10.82;;;;;;;;;;4985918;28;20050;-70
2023/10/24 11:46:57;;;;;;;17.55;9.32;;;;;;;;;;4983885;28;20056;-69
2023/10/24 11:49:32;;;;;;;17.38;8.80;;;;;;;;;;4985904;28;20053;-72
2023/10/24 11:51:58;;;;;;;17.08;7.88;;;;;;;;;;4985738;28;20046;-70
2023/10/24 11:54:26;;;;;;;15.27;7.50;;;;;;;;;;4985380;28;20124;-71
2023/10/24 11:56:53;;;;;;;13.10;7.93;;;;;;;;;;4983125;28;20092;-70
2023/10/24 11:59:18;;;;;;;17.50;8.68;;;;;;;;;;4983451;28;20614;-71
2023/10/24 12:01:45;;;;;;;20.73;8.55;;;;;;;;;;4964182;28;20054;-72
2023/10/24 12:04:12;;;;;;;13.30;7.82;;;;;;;;;;4981942;28;20076;-71
2023/10/24 12:06:37;;;;;;;13.27;7.65;;;;;;;;;;4982254;28;20050;-71
2023/10/24 12:09:04;;;;;;;17.40;7.70;;;;;;;;;;4980264;28;20042;-72
2023/10/24 12:11:32;;;;;;;21.40;7.93;;;;;;;;;;4978833;28;20104;-72
2023/10/24 12:13:57;;;;;;;11.73;7.30;;;;;;;;;;4979472;28;20054;-71
2023/10/24 12:16:28;;;;;;;15.23;7.68;;;;;;;;;;4979239;28;20389;-72
2023/10/24 12:18:54;;;;;;;13.23;7.90;;;;;;;;;;4979046;28;20093;-70
2023/10/24 12:21:19;;;;;;;16.10;7.72;;;;;;;;;;4979934;28;20042;-72
2023/10/24 12:23:44;;;;;;;15.02;8.77;;;;;;;;;;4979896;28;20053;-71
2023/10/24 12:26:10;;;;;;;20.92;9.10;;;;;;;;;;4991667;28;20100;-69
2023/10/24 12:28:36;;;;;;;26.77;8.98;;;;;;;;;;4979669;28;20042;-73
2023/10/24 12:31:03;;;;;;;14.95;7.93;;;;;;;;;;4978276;28;20092;-72
2023/10/24 12:33:29;;;;;;;14.38;8.35;;;;;;;;;;4978519;28;20062;-70
2023/10/24 12:35:55;;;;;;;18.25;7.60;;;;;;;;;;4980681;28;20046;-71
2023/10/24 12:38:21;;;;;;;13.48;6.47;;;;;;;;;;4980890;28;20050;-71
2023/10/24 12:40:47;;;;;;;19.70;7.15;;;;;;;;;;4979280;28;20054;-72
2023/10/24 12:43:12;;;;;;;8.88;5.90;;;;;;;;;;4977313;28;20713;-72
2023/10/24 12:45:38;;;;;;;11.93;5.53;;;;;;;;;;4980639;28;20042;-71
2023/10/24 12:48:07;;;;;;;11.35;6.60;;;;;;;;;;4978989;28;20049;-71
2023/10/24 12:50:33;;;;;;;12.85;6.68;;;;;;;;;;4982669;28;20050;-71
2023/10/24 12:53:05;;;;;;;12.27;6.75;;;;;;;;;;5016593;28;20406;-70
2023/10/24 12:55:31;;;;;;;17.38;7.10;;;;;;;;;;4985496;28;20384;-69
2023/10/24 12:57:56;;;;;;;15.98;7.70;;;;;;;;;;4985292;28;20570;-71
2023/10/24 13:00:22;;;;;;;16.20;8.98;;;;;;;;;;4985422;28;20479;-71
2023/10/24 13:02:48;;;;;;;15.00;9.70;;;;;;;;;;4986059;28;20054;-70
2023/10/24 13:05:13;;;;;;;13.25;9.95;;;;;;;;;;4985633;28;20047;-71
2023/10/24 13:07:38;;;;;;;17.80;9.85;;;;;;;;;;4986123;28;20070;-71
2023/10/24 13:10:04;;;;;;;19.85;11.55;;;;;;;;;;4986368;28;20050;-72
2023/10/24 13:12:30;;;;;;;21.90;12.80;;;;;;;;;;4981169;28;20096;-70
2023/10/24 13:14:55;;;;;;;24.02;13.00;;;;;;;;;;4978124;28;20432;-71
2023/10/24 13:17:21;;;;;;;22.02;14.43;;;;;;;;;;4975088;28;20039;-70
2023/10/24 13:19:46;;;;;;;30.58;14.90;;;;;;;;;;4976322;28;20324;-72
2023/10/24 13:22:12;;;;;;;25.88;14.30;;;;;;;;;;4974631;28;20133;-72
2023/10/24 13:24:38;;;;;;;20.92;13.95;;;;;;;;;;4974559;28;20054;-70
2023/10/24 13:27:04;;;;;;;23.08;15.15;;;;;;;;;;4973222;28;20043;-70
2023/10/24 13:29:29;;;;;;;27.10;15.88;;;;;;;;;;4973357;28;20054;-71
2023/10/24 13:31:56;;;;;;;21.33;14.60;;;;;;;;;;4975926;28;20050;-71
2023/10/24 13:34:22;;;;;;;24.10;15.68;;;;;;;;;;4975628;28;20046;-71
2023/10/24 13:36:47;;;;;;;23.73;14.55;;;;;;;;;;4974675;28;20420;-73
2023/10/24 13:39:14;;;;;;;23.75;14.65;;;;;;;;;;4975001;28;20062;-72
2023/10/24 13:41:40;;;;;;;25.15;15.02;;;;;;;;;;4974959;28;20066;-71
2023/10/24 13:44:06;;;;;;;22.02;13.57;;;;;;;;;;4974289;28;20393;-71
2023/10/24 13:46:32;;;;;;;20.88;13.68;;;;;;;;;;4976067;28;20057;-72
2023/10/24 13:48:58;;;;;;;25.05;15.05;;;;;;;;;;4975304;28;20062;-71
2023/10/24 13:51:23;;;;;;;22.17;13.85;;;;;;;;;;4975116;28;20053;-72
2023/10/24 13:53:50;;;;;;;25.27;15.10;;;;;;;;;;4975171;28;20062;-72
2023/10/24 13:56:16;;;;;;;25.58;16.48;;;;;;;;;;4975802;28;20070;-71
2023/10/24 13:58:41;;;;;;;25.67;16.38;;;;;;;;;;4975422;28;20124;-70
2023/10/24 14:01:07;;;;;;;24.08;15.95;;;;;;;;;;4968230;28;20113;-70
2023/10/24 14:03:33;;;;;;;27.25;16.08;;;;;;;;;;4963475;28;20141;-71
2023/10/24 14:05:59;;;;;;;26.98;16.02;;;;;;;;;;4959100;28;20055;-71
2023/10/24 14:08:24;;;;;;;24.25;15.07;;;;;;;;;;4959961;28;20046;-70
2023/10/24 14:10:50;;;;;;;26.58;17.25;;;;;;;;;;4958881;28;20534;-69
2023/10/24 14:13:16;;;;;;;31.10;18.95;;;;;;;;;;4959249;28;20058;-69
2023/10/24 14:15:42;;;;;;;34.17;19.83;;;;;;;;;;4955620;28;20046;-70
2023/10/24 14:18:07;;;;;;;34.75;18.48;;;;;;;;;;4960188;28;20145;-70
2023/10/24 14:20:33;;;;;;;36.70;20.35;;;;;;;;;;4959045;28;20054;-72
2023/10/24 14:22:58;;;;;;;36.25;19.77;;;;;;;;;;4957801;28;20538;-71
2023/10/24 14:25:25;;;;;;;32.42;20.15;;;;;;;;;;4959275;28;20420;-73
2023/10/24 14:27:51;;;;;;;31.95;19.15;;;;;;;;;;4959232;28;20046;-70
2023/10/24 14:30:16;;;;;;;29.80;17.85;;;;;;;;;;4959067;28;20046;-72
2023/10/24 14:32:42;;;;;;;31.95;17.50;;;;;;;;;;4960725;28;20051;-71
2023/10/24 14:35:08;;;;;;;33.08;19.00;;;;;;;;;;4959080;28;20482;-70
2023/10/24 14:37:34;;;;;;;28.60;16.02;;;;;;;;;;4959200;28;20416;-71